Time;durP1;ratioP1;P1;durP2;ratioP2;P2;SDS_P1;SDS_P2;PMS_P1;PMS_P2;Temp;Humidity;BMP_temperature;BMP_pressure;BME280_temperature;BME280_humidity;BME280_pressure;Samples;Min_cycle;Max_cycle;Signal;HPM_P1;HPM_P2
2020/12/22 00:02:25;;;;;;;7.25;4.43;;;;;;;;;;4931522;29;20075;-78
2020/12/22 00:04:51;;;;;;;6.40;4.28;;;;;;;;;;4948440;29;20488;-80
2020/12/22 00:07:17;;;;;;;7.32;4.25;;;;;;;;;;4948338;29;20047;-78
2020/12/22 00:09:44;;;;;;;8.13;4.32;;;;;;;;;;4947527;29;20035;-79
2020/12/22 00:12:11;;;;;;;7.53;4.50;;;;;;;;;;4965713;29;20067;-79
2020/12/22 00:14:38;;;;;;;6.72;4.00;;;;;;;;;;4946640;29;20481;-79
2020/12/22 00:17:05;;;;;;;7.32;4.30;;;;;;;;;;4954883;29;20067;-81
2020/12/22 00:19:31;;;;;;;6.75;4.05;;;;;;;;;;4954751;29;20051;-79
2020/12/22 00:21:57;;;;;;;6.93;4.38;;;;;;;;;;4958712;29;20067;-79
2020/12/22 00:24:23;;;;;;;7.47;4.20;;;;;;;;;;4951136;29;20059;-78
2020/12/22 00:26:49;;;;;;;9.05;4.30;;;;;;;;;;4948428;29;20047;-79
2020/12/22 00:29:16;;;;;;;6.13;4.07;;;;;;;;;;4965277;29;20039;-78
2020/12/22 00:31:42;;;;;;;5.90;3.92;;;;;;;;;;4947355;29;20298;-81
2020/12/22 00:45:44;;;;;;;6.75;4.32;;;;;;;;;;4916595;29;20044;-79
2020/12/22 00:48:31;;;;;;;7.75;4.07;;;;;;;;;;4915080;29;20040;-78
2020/12/22 00:51:44;;;;;;;7.00;3.92;;;;;;;;;;4888264;29;20072;-79
2020/12/22 00:54:45;;;;;;;7.50;3.90;;;;;;;;;;4920351;29;20081;-79
2020/12/22 00:58:01;;;;;;;6.25;3.78;;;;;;;;;;4921296;29;20048;-80
2020/12/22 01:00:40;;;;;;;;;;;;;;;;;;;;;
2020/12/22 01:03:09;;;;;;;6.13;3.70;;;;;;;;;;4932746;29;20044;-80
2020/12/22 01:06:11;;;;;;;5.85;3.22;;;;;;;;;;4927767;29;20418;-77
2020/12/22 01:09:12;;;;;;;5.95;3.30;;;;;;;;;;4911795;29;20052;-78
2020/12/22 01:15:07;;;;;;;4.60;3.00;;;;;;;;;;4916173;29;20503;-78
2020/12/22 01:18:03;;;;;;;4.70;2.60;;;;;;;;;;4921765;29;20059;-79
2020/12/22 01:20:45;;;;;;;4.00;2.60;;;;;;;;;;4930464;29;20177;-79
2020/12/22 01:23:26;;;;;;;3.20;2.30;;;;;;;;;;4914276;29;20127;-79
2020/12/22 01:26:27;;;;;;;3.47;2.10;;;;;;;;;;4854040;29;20267;-79
2020/12/22 01:28:59;;;;;;;2.97;2.10;;;;;;;;;;4857325;29;20049;-78
2020/12/22 01:31:42;;;;;;;3.05;1.90;;;;;;;;;;4856690;29;20467;-78
2020/12/22 01:34:42;;;;;;;3.15;1.77;;;;;;;;;;4855752;29;20110;-79
2020/12/22 01:37:25;;;;;;;3.55;2.28;;;;;;;;;;4849311;29;20273;-79
2020/12/22 01:43:44;;;;;;;4.80;2.10;;;;;;;;;;4863144;29;20073;-79
2020/12/22 01:50:26;;;;;;;3.67;2.13;;;;;;;;;;4877593;29;20103;-81
2020/12/22 01:53:33;;;;;;;6.00;1.95;;;;;;;;;;4858847;29;20046;-80
2020/12/22 01:56:33;;;;;;;4.15;2.00;;;;;;;;;;4884583;29;20052;-80
2020/12/22 01:59:39;;;;;;;3.20;2.03;;;;;;;;;;4925045;29;20127;-79
2020/12/22 02:03:04;;;;;;;8.98;2.00;;;;;;;;;;4913048;29;20048;-80
2020/12/22 02:06:18;;;;;;;3.13;1.98;;;;;;;;;;4911722;29;20086;-81
2020/12/22 02:09:05;;;;;;;3.28;2.10;;;;;;;;;;4914880;29;20059;-81
2020/12/22 02:12:14;;;;;;;2.90;2.00;;;;;;;;;;4927802;29;20071;-79
2020/12/22 02:15:41;;;;;;;2.78;1.80;;;;;;;;;;4874827;29;20049;-81
2020/12/22 02:18:31;;;;;;;2.95;1.63;;;;;;;;;;4911206;29;20237;-81
2020/12/22 02:21:23;;;;;;;2.08;1.20;;;;;;;;;;4888735;29;20092;-82
2020/12/22 02:32:14;;;;;;;4.32;1.60;;;;;;;;;;4874954;29;20192;-79
2020/12/22 02:35:42;;;;;;;2.83;1.45;;;;;;;;;;4857377;29;20096;-81
2020/12/22 02:42:42;;;;;;;1.90;1.20;;;;;;;;;;4848861;29;20063;-81
2020/12/22 02:49:13;;;;;;;;;;;;;;;;;;;;;
2020/12/22 02:52:33;;;;;;;2.78;0.82;;;;;;;;;;4797823;29;20113;-78
2020/12/22 02:55:30;;;;;;;2.10;0.90;;;;;;;;;;4802653;29;20039;-80
2020/12/22 02:58:32;;;;;;;1.38;0.80;;;;;;;;;;4801450;29;20567;-80
2020/12/22 03:01:05;;;;;;;1.77;0.82;;;;;;;;;;4802411;29;20059;-79
2020/12/22 03:04:05;;;;;;;1.02;0.80;;;;;;;;;;4794154;29;20055;-80
2020/12/22 03:07:08;;;;;;;2.08;0.88;;;;;;;;;;4767026;29;20056;-82
2020/12/22 03:10:16;;;;;;;1.45;0.90;;;;;;;;;;4747880;30;20051;-80
2020/12/22 03:13:10;;;;;;;0.80;0.70;;;;;;;;;;4774717;29;20115;-78
2020/12/22 03:16:23;;;;;;;1.20;0.80;;;;;;;;;;4753291;29;20515;-79
2020/12/22 03:19:56;;;;;;;0.93;0.70;;;;;;;;;;4814431;29;20122;-81
2020/12/22 03:23:32;;;;;;;1.10;0.60;;;;;;;;;;4793666;29;20441;-78
2020/12/22 03:26:16;;;;;;;1.27;0.82;;;;;;;;;;4862493;29;20059;-79
2020/12/22 03:37:19;;;;;;;1.08;0.60;;;;;;;;;;4858313;29;20129;-77
2020/12/22 03:47:18;;;;;;;;;;;;;;;;;;;;;
2020/12/22 03:50:33;;;;;;;0.90;0.57;;;;;;;;;;4833689;29;20124;-78
2020/12/22 03:53:33;;;;;;;0.80;0.60;;;;;;;;;;4829078;29;20075;-79
2020/12/22 03:56:51;;;;;;;1.75;0.52;;;;;;;;;;4802450;29;20149;-79
2020/12/22 03:59:33;;;;;;;0.90;0.50;;;;;;;;;;4829043;29;20045;-78
2020/12/22 04:02:37;;;;;;;1.40;0.60;;;;;;;;;;4896187;29;20117;-80
2020/12/22 04:05:06;;;;;;;1.02;0.60;;;;;;;;;;4898362;29;20056;-79
2020/12/22 04:08:39;;;;;;;1.83;0.80;;;;;;;;;;4857828;29;20041;-79
2020/12/22 04:11:49;;;;;;;0.60;0.50;;;;;;;;;;4852600;29;20050;-79
2020/12/22 04:14:16;;;;;;;1.17;0.55;;;;;;;;;;4890660;29;20083;-79
2020/12/22 04:17:56;;;;;;;1.08;0.60;;;;;;;;;;4872475;29;20056;-82
2020/12/22 04:21:03;;;;;;;1.88;0.50;;;;;;;;;;4864220;29;20477;-79
2020/12/22 04:23:43;;;;;;;0.95;0.38;;;;;;;;;;4864225;29;20049;-78
2020/12/22 04:26:49;;;;;;;1.23;0.30;;;;;;;;;;4845072;29;20112;-81
2020/12/22 04:29:59;;;;;;;0.70;0.40;;;;;;;;;;4877636;29;20512;-79
2020/12/22 04:33:29;;;;;;;0.57;0.40;;;;;;;;;;4872348;29;20052;-79
2020/12/22 04:36:18;;;;;;;1.95;0.30;;;;;;;;;;4890175;29;20588;-79
2020/12/22 04:39:05;;;;;;;0.40;0.40;;;;;;;;;;4914118;29;20051;-80
2020/12/22 04:45:51;;;;;;;;;;;;;;;;;;;;;
2020/12/22 04:52:12;;;;;;;0.30;0.30;;;;;;;;;;4921599;29;20043;-78
2020/12/22 04:55:14;;;;;;;0.47;0.30;;;;;;;;;;4912108;29;20511;-79
2020/12/22 05:02:12;;;;;;;;;;;;;;;;;;;;;
2020/12/22 05:05:20;;;;;;;1.30;0.40;;;;;;;;;;4835566;29;20560;-77
2020/12/22 05:08:48;;;;;;;0.20;0.20;;;;;;;;;;4807199;29;20050;-81
2020/12/22 05:11:38;;;;;;;1.08;0.20;;;;;;;;;;4837078;29;20069;-78
2020/12/22 05:15:07;;;;;;;0.40;0.30;;;;;;;;;;4838470;29;20416;-80
2020/12/22 05:21:44;;;;;;;0.45;0.20;;;;;;;;;;4842214;29;20106;-78
2020/12/22 05:25:00;;;;;;;;;;;;;;;;;;;;;
2020/12/22 05:28:08;;;;;;;2.78;0.40;;;;;;;;;;4836958;29;20068;-78
2020/12/22 05:30:51;;;;;;;0.20;0.20;;;;;;;;;;4834957;29;20145;-78
2020/12/22 05:37:09;;;;;;;1.50;0.30;;;;;;;;;;4854197;29;20126;-79
2020/12/22 05:40:48;;;;;;;0.60;0.30;;;;;;;;;;4855271;29;20182;-79
2020/12/22 05:44:24;;;;;;;1.20;0.20;;;;;;;;;;4851733;29;20053;-78
2020/12/22 05:48:00;;;;;;;0.22;0.20;;;;;;;;;;4874442;29;20281;-79
2020/12/22 05:51:31;;;;;;;1.92;0.30;;;;;;;;;;4853918;29;20547;-77
2020/12/22 05:54:24;;;;;;;0.28;0.17;;;;;;;;;;4874409;29;20109;-79
2020/12/22 06:01:07;;;;;;;;;;;;;;;;;;;;;
2020/12/22 06:04:27;;;;;;;1.17;0.30;;;;;;;;;;4905010;29;20112;-78
2020/12/22 06:07:20;;;;;;;0.82;0.30;;;;;;;;;;4851691;29;20057;-78
2020/12/22 06:10:34;;;;;;;3.92;0.30;;;;;;;;;;4843879;29;20189;-77
2020/12/22 06:13:33;;;;;;;0.28;0.20;;;;;;;;;;4856382;29;20564;-79
2020/12/22 06:16:49;;;;;;;1.23;0.30;;;;;;;;;;4855924;29;20075;-79
2020/12/22 06:19:59;;;;;;;0.52;0.20;;;;;;;;;;4890136;29;20054;-79
2020/12/22 06:22:43;;;;;;;0.80;0.30;;;;;;;;;;4894047;29;20046;-78
2020/12/22 06:29:41;;;;;;;0.22;0.20;;;;;;;;;;4873536;29;20052;-77
2020/12/22 06:33:08;;;;;;;0.50;0.20;;;;;;;;;;4892267;29;20044;-78
2020/12/22 06:36:23;;;;;;;0.45;0.20;;;;;;;;;;4925322;23;20057;-79
2020/12/22 06:39:16;;;;;;;;;;;;;;;;;;;;;
2020/12/22 06:42:10;;;;;;;0.55;0.32;;;;;;;;;;4984268;28;20034;-79
2020/12/22 06:44:48;;;;;;;0.50;0.20;;;;;;;;;;4969898;28;20106;-81
2020/12/22 06:47:53;;;;;;;1.05;0.20;;;;;;;;;;4963452;29;20050;-81
2020/12/22 06:50:50;;;;;;;1.60;0.30;;;;;;;;;;4894963;29;20049;-81
2020/12/22 06:53:45;;;;;;;0.45;0.22;;;;;;;;;;4889049;29;20057;-81
2020/12/22 06:56:52;;;;;;;2.40;0.23;;;;;;;;;;4898320;29;20049;-82
2020/12/22 07:00:05;;;;;;;1.65;0.20;;;;;;;;;;4893223;29;20805;-81
2020/12/22 07:02:47;;;;;;;1.90;0.22;;;;;;;;;;4872586;29;20064;-80
2020/12/22 07:05:39;;;;;;;0.50;0.20;;;;;;;;;;4889847;29;20044;-82
2020/12/22 07:12:22;;;;;;;1.13;0.20;;;;;;;;;;4905345;29;20064;-81
2020/12/22 07:15:06;;;;;;;1.10;0.30;;;;;;;;;;4929817;29;20154;-81
2020/12/22 07:17:37;;;;;;;0.52;0.30;;;;;;;;;;4980328;28;20051;-81
2020/12/22 07:20:10;;;;;;;2.25;0.22;;;;;;;;;;4965690;29;20047;-80
2020/12/22 07:22:49;;;;;;;0.60;0.20;;;;;;;;;;4991059;28;20171;-79
2020/12/22 07:26:13;;;;;;;0.77;0.30;;;;;;;;;;4975460;28;20085;-81
2020/12/22 07:28:57;;;;;;;0.30;0.20;;;;;;;;;;4962076;29;20063;-81
2020/12/22 07:31:45;;;;;;;1.65;0.15;;;;;;;;;;4948059;29;20065;-80
2020/12/22 07:34:49;;;;;;;;;;;;;;;;;;;;;
2020/12/22 07:38:09;;;;;;;0.70;0.25;;;;;;;;;;4963296;29;20043;-82
2020/12/22 07:41:24;;;;;;;1.48;0.30;;;;;;;;;;4959746;28;20054;-79
2020/12/22 07:44:53;;;;;;;0.20;0.20;;;;;;;;;;4966836;28;20067;-81
2020/12/22 07:47:28;;;;;;;1.63;0.20;;;;;;;;;;4921782;29;20040;-81
2020/12/22 07:50:16;;;;;;;1.58;0.20;;;;;;;;;;4934791;28;20042;-81
2020/12/22 07:53:01;;;;;;;0.22;0.20;;;;;;;;;;4978188;28;20046;-80
2020/12/22 07:56:09;;;;;;;0.50;0.20;;;;;;;;;;4916031;29;20061;-82
2020/12/22 07:59:28;;;;;;;1.02;0.20;;;;;;;;;;4965975;28;20098;-81
2020/12/22 08:05:38;;;;;;;1.95;0.20;;;;;;;;;;4953009;28;20058;-80
2020/12/22 08:08:27;;;;;;;2.25;0.10;;;;;;;;;;4969101;28;20418;-80
2020/12/22 08:11:20;;;;;;;0.30;0.10;;;;;;;;;;4964607;28;20407;-80
2020/12/22 08:18:05;;;;;;;0.40;0.22;;;;;;;;;;4926975;29;20055;-80
2020/12/22 08:21:02;;;;;;;1.65;0.13;;;;;;;;;;4919018;29;20051;-80
2020/12/22 08:23:38;;;;;;;0.30;0.20;;;;;;;;;;4913323;29;20040;-81
2020/12/22 08:26:26;;;;;;;1.10;0.10;;;;;;;;;;4923301;29;20041;-82
2020/12/22 08:29:32;;;;;;;1.48;0.30;;;;;;;;;;4950362;29;20538;-79
2020/12/22 08:32:19;;;;;;;0.90;0.30;;;;;;;;;;4972072;28;20286;-81
2020/12/22 08:35:28;;;;;;;2.17;0.22;;;;;;;;;;4957109;29;20058;-82
2020/12/22 08:38:02;;;;;;;1.15;0.20;;;;;;;;;;4962675;28;20051;-80
2020/12/22 08:40:37;;;;;;;2.42;0.20;;;;;;;;;;4960638;28;20047;-82
2020/12/22 08:43:10;;;;;;;0.10;0.10;;;;;;;;;;4956574;29;20138;-78
2020/12/22 08:45:36;;;;;;;2.00;0.20;;;;;;;;;;4960252;29;20040;-81
2020/12/22 08:48:03;;;;;;;0.63;0.20;;;;;;;;;;4959011;29;20071;-79
2020/12/22 08:50:44;;;;;;;0.65;0.50;;;;;;;;;;4956679;29;20051;-79
2020/12/22 08:53:14;;;;;;;0.17;0.10;;;;;;;;;;4958992;29;20090;-80
2020/12/22 08:55:43;;;;;;;0.52;0.30;;;;;;;;;;4958945;29;20043;-77
2020/12/22 08:58:10;;;;;;;0.20;0.13;;;;;;;;;;4959466;29;20295;-81
2020/12/22 09:00:37;;;;;;;0.45;0.20;;;;;;;;;;4958975;29;20447;-80
2020/12/22 09:03:03;;;;;;;1.48;0.20;;;;;;;;;;4958424;29;20047;-80
2020/12/22 09:05:31;;;;;;;0.40;0.20;;;;;;;;;;4958830;29;20106;-81
2020/12/22 09:08:00;;;;;;;0.40;0.30;;;;;;;;;;4957993;29;20043;-81
2020/12/22 09:10:29;;;;;;;0.15;0.13;;;;;;;;;;4957907;29;20400;-78
2020/12/22 09:12:55;;;;;;;0.45;0.20;;;;;;;;;;4956293;29;20099;-80
2020/12/22 09:15:21;;;;;;;0.17;0.10;;;;;;;;;;4957213;29;20051;-79
2020/12/22 09:17:48;;;;;;;0.10;0.10;;;;;;;;;;4956315;29;20049;-80
2020/12/22 09:20:18;;;;;;;1.85;0.25;;;;;;;;;;4957402;29;20419;-80
2020/12/22 09:22:45;;;;;;;0.57;0.28;;;;;;;;;;4964742;28;20098;-81
2020/12/22 09:25:11;;;;;;;0.68;0.20;;;;;;;;;;4975674;28;20326;-81
2020/12/22 09:27:38;;;;;;;0.80;0.30;;;;;;;;;;4974480;28;20123;-80
2020/12/22 09:30:06;;;;;;;0.85;0.30;;;;;;;;;;4961988;28;20039;-81
2020/12/22 09:32:37;;;;;;;0.60;0.30;;;;;;;;;;4945527;29;20043;-78
2020/12/22 09:35:04;;;;;;;0.40;0.25;;;;;;;;;;4971898;29;20047;-79
2020/12/22 09:37:31;;;;;;;1.00;0.30;;;;;;;;;;4971441;29;20054;-80
2020/12/22 09:39:57;;;;;;;0.47;0.20;;;;;;;;;;4970925;29;20503;-78
2020/12/22 09:42:24;;;;;;;1.13;0.30;;;;;;;;;;4943077;29;20107;-79
2020/12/22 09:44:54;;;;;;;0.40;0.28;;;;;;;;;;4961231;29;20074;-80
2020/12/22 09:47:20;;;;;;;1.23;0.25;;;;;;;;;;4942015;29;20047;-80
2020/12/22 09:49:47;;;;;;;0.20;0.15;;;;;;;;;;4968227;29;20043;-81
2020/12/22 09:52:14;;;;;;;0.73;0.13;;;;;;;;;;4972112;29;20104;-79
2020/12/22 09:54:45;;;;;;;0.20;0.10;;;;;;;;;;4969012;29;20085;-80
2020/12/22 09:57:12;;;;;;;0.50;0.20;;;;;;;;;;4963326;29;20158;-79
2020/12/22 09:59:38;;;;;;;1.00;0.30;;;;;;;;;;4951620;29;20518;-79
2020/12/22 10:02:04;;;;;;;0.20;0.20;;;;;;;;;;4968761;29;20075;-78
2020/12/22 10:04:37;;;;;;;0.60;0.30;;;;;;;;;;4972124;29;20051;-79
2020/12/22 10:07:04;;;;;;;1.42;0.30;;;;;;;;;;4968587;29;20117;-79
2020/12/22 10:09:30;;;;;;;0.30;0.20;;;;;;;;;;4955323;29;20050;-81
2020/12/22 10:11:56;;;;;;;0.88;0.38;;;;;;;;;;4954240;29;20474;-81
2020/12/22 10:14:23;;;;;;;0.60;0.30;;;;;;;;;;4955829;29;20447;-80
2020/12/22 10:16:49;;;;;;;0.30;0.30;;;;;;;;;;4955841;29;20285;-80
2020/12/22 10:19:15;;;;;;;0.30;0.17;;;;;;;;;;4956259;29;20043;-80
2020/12/22 10:21:42;;;;;;;0.47;0.30;;;;;;;;;;4954840;29;20051;-81
2020/12/22 10:24:08;;;;;;;1.45;0.30;;;;;;;;;;4952083;29;20050;-82
2020/12/22 10:26:34;;;;;;;0.10;0.10;;;;;;;;;;4958077;28;20098;-81
2020/12/22 10:29:02;;;;;;;0.38;0.30;;;;;;;;;;4956258;28;20044;-81
2020/12/22 10:31:28;;;;;;;0.52;0.40;;;;;;;;;;4956782;29;20074;-79
2020/12/22 10:33:58;;;;;;;1.90;0.20;;;;;;;;;;4954859;29;20043;-80
2020/12/22 10:36:25;;;;;;;1.10;0.30;;;;;;;;;;4954920;29;20125;-80
2020/12/22 10:38:51;;;;;;;0.30;0.20;;;;;;;;;;4955578;28;20506;-81
2020/12/22 10:41:18;;;;;;;0.30;0.20;;;;;;;;;;4954051;28;20516;-81
2020/12/22 10:43:45;;;;;;;0.80;0.20;;;;;;;;;;4969660;28;20463;-81
2020/12/22 10:46:11;;;;;;;0.43;0.30;;;;;;;;;;4956902;28;20426;-82
2020/12/22 10:48:38;;;;;;;0.45;0.20;;;;;;;;;;4957184;28;20047;-81
2020/12/22 10:51:04;;;;;;;0.30;0.20;;;;;;;;;;4956324;28;20039;-82
2020/12/22 10:53:32;;;;;;;3.30;0.25;;;;;;;;;;4956840;29;20039;-82
2020/12/22 10:56:02;;;;;;;0.90;0.32;;;;;;;;;;4958667;29;20134;-80
2020/12/22 10:58:29;;;;;;;3.20;0.60;;;;;;;;;;4955676;28;20051;-81
2020/12/22 11:00:55;;;;;;;1.35;0.10;;;;;;;;;;4957591;29;20056;-79
2020/12/22 11:03:22;;;;;;;0.20;0.20;;;;;;;;;;4956986;29;20051;-81
2020/12/22 11:08:40;;;;;;;2.63;0.30;;;;;;;;;;4954963;29;20252;-80
2020/12/22 11:11:07;;;;;;;0.63;0.30;;;;;;;;;;4957193;29;20043;-81
2020/12/22 11:13:34;;;;;;;0.10;0.10;;;;;;;;;;4955430;29;20043;-79
2020/12/22 11:16:00;;;;;;;0.55;0.17;;;;;;;;;;4954650;29;20047;-80
2020/12/22 11:18:26;;;;;;;2.75;0.20;;;;;;;;;;4955167;29;20579;-81
2020/12/22 11:20:52;;;;;;;2.47;0.20;;;;;;;;;;4938328;29;20215;-81
2020/12/22 11:23:18;;;;;;;0.25;0.20;;;;;;;;;;4953430;29;20547;-81
2020/12/22 11:25:44;;;;;;;2.80;0.20;;;;;;;;;;4960259;29;20044;-81
2020/12/22 11:28:11;;;;;;;0.68;0.50;;;;;;;;;;4972032;29;20075;-79
2020/12/22 11:30:37;;;;;;;0.38;0.22;;;;;;;;;;4972405;28;20031;-80
2020/12/22 11:33:04;;;;;;;0.98;0.22;;;;;;;;;;4962692;29;20055;-80
2020/12/22 11:35:31;;;;;;;0.88;0.20;;;;;;;;;;4954487;29;20051;-81
2020/12/22 11:37:57;;;;;;;2.13;0.20;;;;;;;;;;4954075;29;20043;-81
2020/12/22 11:40:24;;;;;;;2.50;0.20;;;;;;;;;;4955065;29;20122;-80
2020/12/22 11:42:51;;;;;;;1.13;0.30;;;;;;;;;;4953295;29;20050;-81
2020/12/22 11:45:17;;;;;;;0.40;0.20;;;;;;;;;;4953787;29;20098;-80
2020/12/22 11:47:43;;;;;;;0.35;0.30;;;;;;;;;;4953982;29;20047;-80
2020/12/22 11:50:10;;;;;;;2.25;0.47;;;;;;;;;;4952330;28;20051;-81
2020/12/22 11:52:36;;;;;;;0.32;0.20;;;;;;;;;;4958163;29;20116;-80
2020/12/22 11:55:03;;;;;;;0.32;0.10;;;;;;;;;;4958069;29;20047;-80
2020/12/22 11:57:30;;;;;;;0.28;0.10;;;;;;;;;;4958995;29;20558;-80
2020/12/22 11:59:56;;;;;;;0.47;0.22;;;;;;;;;;4961283;29;20057;-79
2020/12/22 12:02:22;;;;;;;0.75;0.28;;;;;;;;;;4961861;29;20047;-79
2020/12/22 12:04:51;;;;;;;0.47;0.28;;;;;;;;;;4961959;29;20462;-81
2020/12/22 12:07:18;;;;;;;0.85;0.38;;;;;;;;;;4964081;29;20055;-79
2020/12/22 12:09:44;;;;;;;0.90;0.20;;;;;;;;;;4968541;28;20031;-80
2020/12/22 12:12:13;;;;;;;0.22;0.15;;;;;;;;;;4982191;28;20191;-82
2020/12/22 12:14:39;;;;;;;0.25;0.20;;;;;;;;;;4966511;28;20715;-82
2020/12/22 12:21:30;;;;;;;0.30;0.20;;;;;;;;;;4963257;28;20035;-82
2020/12/22 12:24:42;;;;;;;1.60;0.25;;;;;;;;;;4957545;28;20071;-84
2020/12/22 12:27:50;;;;;;;0.50;0.20;;;;;;;;;;4960076;29;20051;-83
2020/12/22 12:31:21;;;;;;;0.50;0.30;;;;;;;;;;4976745;28;20043;-83
2020/12/22 12:34:22;;;;;;;0.45;0.20;;;;;;;;;;4962061;28;20135;-79
2020/12/22 12:42:01;;;;;;;0.82;0.20;;;;;;;;;;4962909;29;20103;-83
2020/12/22 12:44:27;;;;;;;0.30;0.25;;;;;;;;;;4960152;28;20050;-83
2020/12/22 12:46:53;;;;;;;0.25;0.17;;;;;;;;;;4980053;28;20043;-87
2020/12/22 12:49:19;;;;;;;0.55;0.20;;;;;;;;;;4980142;28;20054;-89
2020/12/22 12:51:46;;;;;;;0.55;0.20;;;;;;;;;;4963312;28;20047;-82
2020/12/22 13:13:30;;;;;;;;;;;;;;;;;;;;;
2020/12/22 13:17:06;;;;;;;0.60;0.30;;;;;;;;;;4934668;29;20044;-80
2020/12/22 13:21:19;;;;;;;0.98;0.30;;;;;;;;;;4907401;29;20032;-80
2020/12/22 13:24:41;;;;;;;1.23;0.30;;;;;;;;;;4910506;29;20110;-78
2020/12/22 13:28:00;;;;;;;;;;;;;;;;;;;;;
2020/12/22 13:35:32;;;;;;;;;;;;;;;;;;;;;
2020/12/22 13:50:17;;;;;;;;;;;;;;;;;;;;;
2020/12/22 13:53:41;;;;;;;1.50;0.35;;;;;;;;;;4840695;29;20086;-80
2020/12/22 14:01:07;;;;;;;0.85;0.30;;;;;;;;;;4860623;29;20162;-81
2020/12/22 14:23:47;;;;;;;0.88;0.43;;;;;;;;;;4903412;29;20067;-79
2020/12/22 14:31:25;;;;;;;5.60;0.90;;;;;;;;;;4830245;29;20105;-79
2020/12/22 14:39:20;;;;;;;;;;;;;;;;;;;;;
2020/12/22 14:58:34;;;;;;;0.60;0.40;;;;;;;;;;4755636;30;20051;-79
2020/12/22 15:02:20;;;;;;;;;;;;;;;;;;;;;
2020/12/22 15:09:42;;;;;;;3.25;0.70;;;;;;;;;;4769225;30;20058;-79
2020/12/22 15:13:20;;;;;;;0.93;0.52;;;;;;;;;;4769196;30;20070;-78
2020/12/22 15:20:09;;;;;;;;;;;;;;;;;;;;;
2020/12/22 15:24:17;;;;;;;;;;;;;;;;;;;;;
2020/12/22 15:32:58;;;;;;;1.23;0.50;;;;;;;;;;4924884;23;20454;-81
2020/12/22 15:35:24;;;;;;;1.02;0.57;;;;;;;;;;4980744;28;20161;-79
2020/12/22 15:37:51;;;;;;;1.48;0.68;;;;;;;;;;4980833;28;20414;-80
2020/12/22 15:40:17;;;;;;;0.90;0.60;;;;;;;;;;4980841;28;20049;-80
2020/12/22 15:42:45;;;;;;;1.88;0.70;;;;;;;;;;4981954;28;20043;-81
2020/12/22 15:45:11;;;;;;;3.83;1.08;;;;;;;;;;4982288;28;20042;-81
2020/12/22 16:01:21;;;;;;;3.38;0.80;;;;;;;;;;4940595;29;20051;-80
2020/12/22 16:03:47;;;;;;;4.03;0.90;;;;;;;;;;4942589;29;20051;-81
2020/12/22 16:06:13;;;;;;;1.33;0.75;;;;;;;;;;4937765;29;20566;-81
2020/12/22 16:08:42;;;;;;;1.67;0.70;;;;;;;;;;4940701;29;20043;-80
2020/12/22 16:11:11;;;;;;;3.03;0.80;;;;;;;;;;4941794;29;20075;-84
2020/12/22 17:02:31;;;;;;;;;;;;;;;;;;;;;
2020/12/22 17:14:56;;;;;;;1.88;0.65;;;;;;;;;;4825636;29;20037;-80
2020/12/22 17:18:35;;;;;;;1.23;0.70;;;;;;;;;;4765121;30;20064;-80
2020/12/22 17:35:02;;;;;;;;;;;;;;;;;;;;;
2020/12/22 17:49:51;;;;;;;1.20;0.70;;;;;;;;;;4852008;29;20040;-78
2020/12/22 18:01:19;;;;;;;;;;;;;;;;;;;;;
2020/12/22 18:16:28;;;;;;;1.27;0.77;;;;;;;;;;4695061;30;20420;-82
2020/12/22 18:27:45;;;;;;;;;;;;;;;;;;;;;
2020/12/22 18:54:15;;;;;;;4.67;0.90;;;;;;;;;;4801541;29;20094;-79
2020/12/22 19:05:10;;;;;;;2.40;1.15;;;;;;;;;;4861605;29;20052;-81
2020/12/22 19:08:25;;;;;;;3.55;1.00;;;;;;;;;;4891062;29;20062;-80
2020/12/22 19:15:36;;;;;;;;;;;;;;;;;;;;;
2020/12/22 19:19:35;;;;;;;2.85;0.80;;;;;;;;;;4810285;29;20052;-79
2020/12/22 19:23:07;;;;;;;;;;;;;;;;;;;;;
2020/12/22 19:26:29;;;;;;;;;;;;;;;;;;;;;
2020/12/22 19:29:57;;;;;;;;;;;;;;;;;;;;;
2020/12/22 19:37:14;;;;;;;1.83;1.10;;;;;;;;;;4923529;29;20103;-81
2020/12/22 19:40:26;;;;;;;3.03;0.80;;;;;;;;;;4937215;29;20115;-80
2020/12/22 19:43:39;;;;;;;2.25;0.70;;;;;;;;;;4920283;29;20043;-84
2020/12/22 19:59:47;;;;;;;2.33;0.90;;;;;;;;;;4938749;29;20484;-85
2020/12/22 20:02:16;;;;;;;1.88;0.70;;;;;;;;;;4942386;29;20040;-86
2020/12/22 20:04:44;;;;;;;1.80;0.98;;;;;;;;;;4941362;29;20052;-83
2020/12/22 20:07:34;;;;;;;1.85;0.82;;;;;;;;;;4951840;29;20044;-83
2020/12/22 20:10:03;;;;;;;1.25;0.80;;;;;;;;;;4932937;29;20056;-82
2020/12/22 20:39:03;;;;;;;2.00;0.80;;;;;;;;;;5108862;23;20059;-81
2020/12/22 21:43:52;;;;;;;3.35;1.83;;;;;;;;;;4949172;28;20048;-85
2020/12/22 21:46:22;;;;;;;6.00;1.60;;;;;;;;;;4949578;29;20047;-87
2020/12/22 21:48:49;;;;;;;2.88;1.70;;;;;;;;;;4949003;29;20051;-81
2020/12/22 21:51:15;;;;;;;2.92;1.60;;;;;;;;;;4949829;29;20040;-81
2020/12/22 21:53:45;;;;;;;3.88;1.40;;;;;;;;;;4950931;29;20108;-83
2020/12/22 21:56:14;;;;;;;2.25;1.30;;;;;;;;;;4950062;29;20058;-83
2020/12/22 22:09:21;;;;;;;2.05;1.00;;;;;;;;;;4986006;28;20047;-83
2020/12/22 22:11:48;;;;;;;3.35;1.00;;;;;;;;;;4986694;28;20057;-84
2020/12/22 22:14:14;;;;;;;2.80;1.40;;;;;;;;;;4986495;28;20049;-80
2020/12/22 22:16:50;;;;;;;3.00;1.25;;;;;;;;;;4988689;28;20047;-84
2020/12/22 22:19:17;;;;;;;2.33;1.10;;;;;;;;;;4988713;28;20042;-83
2020/12/22 22:21:47;;;;;;;3.30;1.10;;;;;;;;;;4986900;28;20039;-83
2020/12/22 22:24:14;;;;;;;1.55;0.88;;;;;;;;;;4970666;28;20491;-82
2020/12/22 22:26:41;;;;;;;3.00;1.00;;;;;;;;;;4988400;28;20043;-82
2020/12/22 22:29:07;;;;;;;1.75;1.00;;;;;;;;;;4987153;28;20047;-80
2020/12/22 22:31:33;;;;;;;3.22;1.08;;;;;;;;;;4986335;28;20039;-82
2020/12/22 22:34:02;;;;;;;3.58;1.35;;;;;;;;;;4968806;28;20043;-83
2020/12/22 22:36:28;;;;;;;4.82;1.77;;;;;;;;;;4987102;28;20051;-82
2020/12/22 22:38:54;;;;;;;4.20;1.80;;;;;;;;;;4971023;28;20051;-85
2020/12/22 22:41:23;;;;;;;4.50;1.67;;;;;;;;;;4971085;28;20050;-84
2020/12/22 22:43:50;;;;;;;3.85;1.52;;;;;;;;;;4987202;28;20066;-82
2020/12/22 22:46:17;;;;;;;2.05;1.40;;;;;;;;;;4986583;28;20095;-86
2020/12/22 22:48:43;;;;;;;2.38;1.48;;;;;;;;;;4987615;28;20105;-87
2020/12/22 22:51:10;;;;;;;3.60;1.33;;;;;;;;;;4969909;28;20311;-83
2020/12/22 22:53:36;;;;;;;1.70;1.33;;;;;;;;;;4987395;28;20061;-83
2020/12/22 22:56:02;;;;;;;6.82;1.35;;;;;;;;;;4986425;28;20051;-82
2020/12/22 22:58:28;;;;;;;6.53;1.65;;;;;;;;;;4987927;28;20053;-83
2020/12/22 23:00:54;;;;;;;3.42;1.60;;;;;;;;;;4971102;28;20110;-83
2020/12/22 23:03:23;;;;;;;3.33;1.50;;;;;;;;;;4986392;28;20043;-84
2020/12/22 23:05:48;;;;;;;3.17;1.73;;;;;;;;;;4983674;28;20047;-83
2020/12/22 23:08:14;;;;;;;4.05;1.90;;;;;;;;;;4985037;28;20081;-85
2020/12/22 23:10:43;;;;;;;3.30;1.73;;;;;;;;;;4987060;28;20414;-85
2020/12/22 23:13:09;;;;;;;2.75;1.77;;;;;;;;;;4986813;28;20035;-84
2020/12/22 23:15:35;;;;;;;2.30;1.80;;;;;;;;;;4985932;28;20121;-86
2020/12/22 23:18:02;;;;;;;2.40;2.10;;;;;;;;;;4968874;28;20070;-84
2020/12/22 23:20:28;;;;;;;3.40;1.98;;;;;;;;;;4986838;28;20054;-85
2020/12/22 23:22:54;;;;;;;5.28;2.60;;;;;;;;;;4986429;28;20227;-83
2020/12/22 23:25:20;;;;;;;6.35;2.33;;;;;;;;;;4985840;28;20050;-80
2020/12/22 23:27:47;;;;;;;3.53;2.20;;;;;;;;;;4986839;28;20188;-83
2020/12/22 23:30:13;;;;;;;5.47;2.75;;;;;;;;;;4989805;28;20039;-80
2020/12/22 23:32:50;;;;;;;4.35;2.65;;;;;;;;;;4988147;28;20523;-80
2020/12/22 23:35:16;;;;;;;4.50;2.92;;;;;;;;;;4967624;28;20046;-82
2020/12/22 23:37:44;;;;;;;5.20;3.00;;;;;;;;;;4966932;28;20070;-84
2020/12/22 23:40:10;;;;;;;4.90;3.25;;;;;;;;;;4982780;28;20043;-84
2020/12/22 23:42:36;;;;;;;4.68;3.35;;;;;;;;;;4983099;28;20050;-86
2020/12/22 23:45:04;;;;;;;6.53;3.38;;;;;;;;;;4965232;28;20043;-82
2020/12/22 23:47:30;;;;;;;4.85;3.40;;;;;;;;;;4970198;28;20057;-80
2020/12/22 23:49:57;;;;;;;8.68;3.80;;;;;;;;;;4988327;28;20047;-82
2020/12/22 23:52:23;;;;;;;6.90;4.10;;;;;;;;;;4979535;28;20070;-81
2020/12/22 23:54:49;;;;;;;6.63;3.60;;;;;;;;;;4970657;29;20071;-82
2020/12/22 23:57:15;;;;;;;5.88;3.63;;;;;;;;;;4969539;29;20047;-81
2020/12/22 23:59:41;;;;;;;7.18;4.00;;;;;;;;;;4988161;28;20051;-84
